Tropical Cyclones
[Index]
Main Index Home Page Stock Weather Photos Extreme Storms Discussion Storm News and Storm Chasing Reports Tropical Cyclones / Hurricanes / Typhoons Weather Data and Links Wild Fires / Bushfires Weather Observation Techniques Weather Picture Catalogue Tornado Pictures and Reports Stock Video Footage and DVDs for sale
Season 1977-1978 Tropical Cyclone ANNE Track Map
Season 1977-1978 Summaries: [BoM-AU] [JTWC-AU] [JTWC-SIO] [JTWC-SPAC] [JTWC-SH]
<<- Previous TC | JTWC 1977-1978 Season | Next TC ->>

click for intensity scale information  Lat/long Grid: Show Hide

 Date Labels: Show Hide

Joint Typhoon Warning Centre Cyclone Data

Name: ANNE
Number: 964 / 7808

23 Dec 1977 12:00 UTC to 29 Dec 1977 12:00 UTC

    date/time    lat    long     hPa   cat  kts
1977-12-23 12   11.8   176.5W                 35          
1977-12-23 18   12.5   177.6W           1     40          
1977-12-24 00   13.3   178.5W           1     40          
1977-12-24 06   14.2   179.3W           1     45          
1977-12-24 12   15.0   179.8W           1     45          
1977-12-24 18   15.5   179.9            1     45          
1977-12-25 00   16.0   179.9            1     45          
1977-12-25 06   16.5   180.0            1     50          
1977-12-25 12   17.0   179.8W           1     50          
1977-12-25 18   17.3   179.5W           1     50          
1977-12-26 00   17.5   179.0W           1     50          
1977-12-26 06   18.0   177.8W           2     55          
1977-12-26 12   18.5   176.5W           2     55          
1977-12-26 18   18.8   175.8W           2     55          
1977-12-27 00   19.1   175.0W           1     50          
1977-12-27 06   19.6   173.8W           1     50          
1977-12-27 12   20.1   172.5W           1     45          
1977-12-27 18   20.6   171.3W           1     45          
1977-12-28 00   21.1   170.0W           1     40          
1977-12-28 06   21.9   168.5W           1     40          
1977-12-28 12   23.0   166.8W           1     40          
1977-12-28 18   24.0   165.4W                 35          
1977-12-29 00   25.0   164.0W                 35          
1977-12-29 06   26.9   161.6W                             
1977-12-29 12   30.0   158.0W                             
Winds are 1-min average.

Tropical cyclone tracks developed by Michael Bath using data from the Joint Typhoon Warning Centre Best Tracks and Google Maps.


[Australian Severe Weather index] [Copyright Notice] [Email Contacts] [Search This Site] [Privacy Policy]
Document: tropical_cyclone_anne.htm Updated: 18 September 2016